Terminal Aerodrome Forecast
Issued by NWS Pittsburgh, PA

Current Version | Previous Version | Text Only | Print | Product List | Glossary Off
Versions: 1 2 3 4 5 6 7 8 9 10 11 12 13 14 15 16 17 18 19 20 21 22 23 24 25 26 27 28 29 30 31 32 33 34 35 36 37 38 39

201
FTUS41 KPBZ 282328 CCB
TAFPIT
TAF COR
KPIT 282328Z 2900/3006 05005KT 1SM -DZ BR OVC003
     FM290200 02005KT 2SM BR OVC008
     FM290600 34005KT 3SM BR OVC008
     FM291800 29005KT P6SM BKN015=

USA.gov is the U.S. government's official web portal to all federal, state and local government web resources and services.